Latest Weather Observations for Oodnadatta

IDS60801

Issued at 9:02 pm CDT Friday 30 January 2015 (issued every 30 minutes, with the page automatically refreshed every 10 minutes)

About weather observations | Map of weather stations | Latest weather observations for SA | Other Formats
Station Details ID: 017043 Name: OODNADATTA AIRPORT Lat: -27.56 Lon: 135.45 Height: 116.5 m
Data from the previous 72 hours. | See also: Recent months at Oodnadatta
Date/Time
CDT
Temp
°C
App
Temp
°C
Dew
Point
Rel
Hum
%
Delta-T
°C
Wind Press
QNH
hPa
Press
MSL
hPa
Rain
since 9 am
mm
Dir
 
Spd
km/h
Gust
km/h
Spd
kts
Gust
kts
30/09:00pm 33.3 29.4 3.2 15 15.6 ESE 13 17 7 9 1007.5 1006.7 0.0
30/08:30pm 34.8 30.1 3.4 14 16.5 SE 17 20 9 11 1007.3 - 0.0
30/08:00pm 36.0 31.7 3.3 13 17.2 SE 15 17 8 9 1007.0 - 0.0
30/07:30pm 36.5 31.3 3.7 13 17.4 E 20 28 11 15 1006.8 - 0.0
30/07:00pm 36.7 32.9 3.8 13 17.5 S 13 22 7 12 1006.7 - 0.0
30/06:30pm 36.3 33.2 3.5 13 17.3 SE 9 15 5 8 1006.7 - 0.0
30/06:00pm 36.7 33.5 4.9 14 17.3 ESE 11 20 6 11 1006.7 1005.9 0.0
30/05:30pm 37.7 35.2 4.6 13 17.9 NNW 7 20 4 11 1006.9 - 0.0
30/05:00pm 36.8 32.0 4.9 14 17.3 ESE 19 22 10 12 1007.1 - 0.0
30/04:30pm 36.9 33.7 5.0 14 17.3 E 11 19 6 10 1007.4 - 0.0
30/04:00pm 36.7 33.5 4.9 14 17.2 E 11 19 6 10 1007.8 - 0.0
30/03:30pm 36.3 34.0 5.5 15 16.8 NNW 7 15 4 8 1008.2 - 0.0
30/03:00pm 35.6 31.4 5.9 16 16.3 SE 17 24 9 13 1008.8 1008.0 0.0
30/02:30pm 36.2 32.1 6.4 16 16.5 E 17 24 9 13 1009.2 - 0.0
30/02:00pm 36.4 34.1 7.4 17 16.3 SE 9 17 5 9 1009.7 - 0.0
30/01:30pm 34.3 29.7 6.6 18 15.2 SSE 20 26 11 14 1010.0 - 0.0
30/01:00pm 34.4 30.2 7.5 19 15.0 ESE 19 28 10 15 1010.5 - 0.0
30/12:30pm 34.2 32.2 7.3 19 14.9 SE 7 20 4 11 1010.9 - 0.0
30/12:00pm 33.5 30.5 7.5 20 14.4 ENE 13 24 7 13 1011.2 1010.4 0.0
30/11:30am 33.5 31.6 7.5 20 14.4 E 7 24 4 13 1011.4 - 0.0
30/11:00am 31.2 28.8 7.0 22 13.2 ENE 9 17 5 9 1011.8 - 0.0
30/10:30am 30.7 27.4 6.6 22 13.0 E 13 19 7 10 1011.8 - 0.0
30/10:00am 29.5 25.5 6.8 24 12.2 ESE 17 22 9 12 1011.6 - 0.0
30/09:30am 27.4 23.1 3.2 21 12.1 SE 15 19 8 10 1011.3 - 0.0
30/09:00am 26.7 22.4 3.2 22 11.7 S 15 19 8 10 1010.9 1010.1 0.0
30/08:30am 25.3 21.7 2.7 23 11.0 NNW 11 15 6 8 1010.9 - 0.0
30/08:00am 22.0 19.0 4.1 31 8.7 NNW 9 11 5 6 1010.6 - 0.0
30/07:30am 21.8 18.8 3.9 31 8.7 NNW 9 11 5 6 1010.5 - 0.0
30/07:00am 21.2 18.6 4.3 33 8.2 NNW 7 9 4 5 1010.2 - 0.0
30/06:30am 21.6 20.3 4.2 32 8.5 CALM 0 0 0 0 1009.9 - 0.0
30/06:00am 20.9 17.9 4.0 33 8.2 NNW 9 11 5 6 1009.7 1008.9 0.0
30/05:30am 21.9 19.4 4.5 32 8.6 NNW 7 9 4 5 1009.5 - 0.0
30/05:00am 21.9 19.0 4.5 32 8.6 NNW 9 11 5 6 1009.2 - 0.0
30/04:30am 21.5 18.2 4.6 33 8.3 NNW 11 13 6 7 1009.2 - 0.0
30/04:00am 21.9 19.0 4.5 32 8.6 NNW 9 11 5 6 1009.1 - 0.0
30/03:30am 22.5 19.6 4.5 31 8.9 NNW 9 13 5 7 1009.4 - 0.0
30/03:00am 23.8 21.3 4.7 29 9.6 ESE 7 9 4 5 1009.5 1008.7 0.0
30/02:30am 24.1 21.6 4.5 28 9.8 ESE 7 9 4 5 1009.7 - 0.0
30/02:00am 24.7 22.2 5.0 28 10.0 ESE 7 9 4 5 1009.7 - 0.0
30/01:30am 24.8 21.5 4.5 27 10.2 ESE 11 13 6 7 1009.9 - 0.0
30/12:30am 26.8 22.3 4.0 23 11.5 E 17 19 9 10 1010.1 - 0.0
30/12:00am 27.5 22.9 3.9 22 11.9 E 17 20 9 11 1010.2 1009.5 0.0
 
Date/Time
CDT
Temp
°C
App
Temp
°C
Dew
Point
Rel
Hum
%
Delta-T
°C
Wind Press
QNH
hPa
Press
MSL
hPa
Rain
since 9 am
mm
Dir
 
Spd
km/h
Gust
km/h
Spd
kts
Gust
kts
29/11:30pm 28.0 23.7 3.0 20 12.5 E 15 17 8 9 1010.2 - 0.0
29/11:00pm 29.3 24.1 2.5 18 13.4 E 19 24 10 13 1010.2 - 0.0
29/10:30pm 29.7 24.7 3.6 19 13.3 E 19 22 10 12 1010.0 - 0.0
29/10:00pm 30.7 24.8 3.7 18 13.9 E 24 30 13 16 1009.8 - 0.0
29/09:30pm 30.5 25.4 1.0 15 14.5 ESE 17 19 9 10 1009.5 - 0.0
29/09:00pm 31.5 26.0 0.8 14 15.1 ESE 19 22 10 12 1009.3 1008.5 0.0
29/08:30pm 32.7 27.0 -0.4 12 16.1 SE 19 24 10 13 1009.1 - 0.0
29/08:00pm 33.7 27.8 -0.8 11 16.8 ESE 20 26 11 14 1008.8 - 0.0
29/07:30pm 34.6 28.8 -1.4 10 17.4 SSE 19 28 10 15 1008.7 - 0.0
29/07:00pm 35.0 30.8 -1.1 10 17.6 SSE 11 20 6 11 1008.6 - 0.0
29/06:30pm 35.1 28.8 -1.1 10 17.7 SE 22 33 12 18 1008.4 - 0.0
29/06:00pm 35.4 29.1 -0.8 10 17.8 SSE 22 30 12 16 1008.4 1007.6 0.0
29/05:30pm 35.4 30.1 -0.8 10 17.8 SE 17 30 9 16 1008.5 - 0.0
29/05:00pm 34.8 28.8 -1.3 10 17.5 ESE 20 33 11 18 1008.7 - 0.0
29/04:30pm 34.5 29.3 -0.2 11 17.1 SE 17 30 9 16 1008.9 - 0.0
29/04:00pm 33.8 28.5 1.6 13 16.3 S 19 32 10 17 1009.4 - 0.0
29/03:30pm 34.1 27.5 -0.5 11 16.9 SSE 24 32 13 17 1009.7 - 0.0
29/03:00pm 34.0 28.5 1.7 13 16.4 ESE 20 28 11 15 1010.1 1009.3 0.0
29/02:30pm 34.0 28.1 1.7 13 16.4 SE 22 33 12 18 1010.5 - 0.0
29/02:00pm 32.9 28.9 2.9 15 15.4 S 13 24 7 13 1011.0 - 0.0
29/01:30pm 31.8 27.7 2.0 15 15.0 ESE 13 20 7 11 1011.4 - 0.0
29/01:00pm 30.9 26.2 3.0 17 14.2 E 17 28 9 15 1011.9 - 0.0
29/12:30pm 30.7 27.2 3.7 18 13.9 SE 11 17 6 9 1012.2 - 0.0
29/12:00pm 30.5 27.5 4.3 19 13.6 E 9 20 5 11 1012.4 1011.6 0.0
29/11:30am 30.2 26.4 4.0 19 13.5 SSE 13 24 7 13 1012.7 - 0.0
29/10:30am 28.1 24.8 4.4 22 12.1 SSE 11 17 6 9 1013.0 - 0.0
29/10:00am 26.6 22.9 4.4 24 11.3 SSE 13 19 7 10 1013.0 - 0.0
29/09:30am 24.9 21.5 4.1 26 10.4 SSE 11 15 6 8 1012.9 - 0.0
29/09:00am 23.2 19.7 3.7 28 9.5 S 11 13 6 7 1012.8 1012.0 0.0
29/08:30am 22.3 19.5 3.4 29 9.1 SSE 7 9 4 5 1012.5 - 0.0
29/08:00am 20.6 17.4 2.9 31 8.4 S 9 11 5 6 1012.2 - 0.0
29/07:30am 18.7 16.8 2.9 35 7.4 E 2 7 1 4 1011.9 - 0.0
29/07:00am 18.6 17.1 2.9 35 7.3 CALM 0 0 0 0 1011.5 - 0.0
29/06:30am 18.1 16.6 2.8 36 7.1 CALM 0 0 0 0 1011.3 - 0.0
29/06:00am 18.4 16.8 2.7 35 7.3 CALM 0 4 0 2 1011.1 1010.3 0.0
29/05:30am 19.1 15.1 2.9 34 7.6 E 13 15 7 8 1010.7 - 0.0
29/05:00am 19.4 15.0 2.7 33 7.8 ENE 15 17 8 9 1010.6 - 0.0
29/04:30am 19.4 15.8 2.7 33 7.8 ESE 11 13 6 7 1010.5 - 0.0
29/04:00am 20.1 15.7 2.9 32 8.1 SE 15 17 8 9 1010.5 - 0.0
29/03:30am 19.7 15.7 2.6 32 8.0 SE 13 15 7 8 1010.6 - 0.0
29/03:00am 20.3 16.3 2.6 31 8.3 SE 13 13 7 7 1010.7 1010.0 0.0
29/02:30am 21.3 18.0 2.6 29 8.8 SSE 9 13 5 7 1010.9 - 0.0
29/02:00am 21.3 17.7 3.0 30 8.7 ESE 11 13 6 7 1011.1 - 0.0
29/01:30am 22.3 18.3 2.9 28 9.3 ESE 13 15 7 8 1011.2 - 0.0
29/01:00am 23.0 18.7 3.0 27 9.6 ESE 15 17 8 9 1011.3 - 0.0
29/12:30am 23.7 19.4 3.1 26 10.0 ESE 15 17 8 9 1011.6 - 0.0
29/12:00am 25.3 20.6 3.3 24 10.8 ESE 17 20 9 11 1011.6 1010.8 0.0
 
Date/Time
CDT
Temp
°C
App
Temp
°C
Dew
Point
Rel
Hum
%
Delta-T
°C
Wind Press
QNH
hPa
Press
MSL
hPa
Rain
since 9 am
mm
Dir
 
Spd
km/h
Gust
km/h
Spd
kts
Gust
kts
28/11:30pm 26.1 21.1 3.4 23 11.3 ESE 19 22 10 12 1011.5 - 0.0
28/11:00pm 26.5 22.2 3.1 22 11.6 SE 15 17 8 9 1011.3 - 0.0
28/10:30pm 27.5 22.8 3.2 21 12.1 ESE 17 19 9 10 1011.1 - 0.0
28/10:00pm 28.4 23.2 2.6 19 12.8 ESE 19 24 10 13 1010.6 - 0.0
28/09:30pm 28.7 23.9 2.8 19 12.9 ESE 17 20 9 11 1010.4 - 0.0
28/09:00pm 30.3 24.2 2.5 17 14.0 SSE 24 32 13 17 1010.1 1009.3 0.0
28/08:30pm 30.9 24.7 2.2 16 14.4 SSE 24 28 13 15 1009.7 - 0.0
28/08:00pm 31.6 25.7 1.8 15 14.9 SE 22 32 12 17 1009.4 - 0.0
28/07:30pm 32.3 25.6 1.4 14 15.4 SSE 26 33 14 18 1009.2 - 0.0
28/07:00pm 32.5 26.6 1.6 14 15.5 SSE 22 39 12 21 1009.0 - 0.0
28/06:30pm 32.6 26.5 2.6 15 15.3 ESE 24 35 13 19 1008.8 - 0.0
28/06:00pm 32.5 25.8 1.6 14 15.5 S 26 37 14 20 1008.8 1008.0 0.0
28/05:30pm 33.8 27.3 2.6 14 16.0 SE 26 43 14 23 1008.8 - 0.0
28/05:00pm 32.9 27.4 1.9 14 15.7 SSE 20 30 11 16 1009.1 - 0.0
28/04:30pm 32.3 27.8 2.4 15 15.2 ESE 15 35 8 19 1009.4 - 0.0
28/04:00pm 33.4 27.8 3.3 15 15.6 S 22 33 12 18 1009.5 - 0.0
28/03:30pm 31.5 26.7 2.7 16 14.6 S 17 30 9 16 1009.8 - 0.0
28/03:00pm 31.8 27.2 3.8 17 14.5 SSE 17 32 9 17 1010.1 1009.3 0.0
28/02:30pm 31.0 26.3 3.1 17 14.2 ESE 17 30 9 16 1010.6 - 0.0
28/02:00pm 30.7 26.1 3.7 18 13.9 SE 17 30 9 16 1011.1 - 0.0
28/01:30pm 29.5 25.2 3.5 19 13.2 SSE 15 24 8 13 1011.6 - 0.0
28/01:00pm 30.0 27.2 5.3 21 13.0 SSE 9 26 5 14 1012.0 - 0.0
28/12:30pm 28.2 24.9 4.5 22 12.2 E 11 19 6 10 1012.3 - 0.0
28/12:00pm 27.4 23.7 4.5 23 11.7 SSE 13 20 7 11 1012.5 1011.7 0.0
28/11:30am 27.5 24.1 5.7 25 11.4 ESE 13 20 7 11 1012.7 - 0.0
28/11:00am 26.6 22.2 6.6 28 10.5 ESE 19 24 10 13 1013.0 - 0.0
28/10:30am 25.4 20.9 7.1 31 9.7 SE 20 26 11 14 1013.0 - 0.0
28/10:00am 24.5 20.1 7.6 34 9.0 SE 20 28 11 15 1013.2 - 0.0
28/09:30am 23.9 19.2 7.9 36 8.5 SE 22 28 12 15 1013.1 - 0.0
28/09:00am 22.6 17.4 7.2 37 8.0 SE 24 30 13 16 1013.2 1012.4 0.0
28/08:30am 21.9 16.8 7.7 40 7.4 SE 24 28 13 15 1012.9 - 0.0
28/08:00am 21.1 16.8 7.0 40 7.2 SE 19 24 10 13 1012.6 - 0.0
28/07:30am 20.0 15.9 6.4 41 6.9 ESE 17 20 9 11 1012.1 - 0.0
28/07:00am 19.6 15.8 5.6 40 6.9 SE 15 19 8 10 1011.7 - 0.0
28/06:30am 18.6 16.0 3.3 36 7.2 SSE 6 7 3 4 1011.5 - 0.0
28/06:00am 19.9 16.1 4.0 35 7.6 SE 13 17 7 9 1011.2 1010.4 0.0
28/05:30am 19.9 15.5 2.7 32 8.1 SSE 15 17 8 9 1011.1 - 0.0
28/05:00am 19.3 15.5 1.8 31 8.0 SE 11 15 6 8 1011.0 - 0.0
28/04:30am 19.2 16.3 1.2 30 8.1 SSE 6 7 3 4 1011.0 - 0.0
28/04:00am 20.4 17.3 1.3 28 8.7 SSE 7 9 4 5 1010.9 - 0.0
28/03:30am 20.3 18.4 0.7 27 8.9 CALM 0 6 0 3 1011.0 - 0.0
28/03:00am 20.8 16.5 1.1 27 9.0 S 13 15 7 8 1011.1 1010.3 0.0
28/02:30am 21.5 17.2 0.7 25 9.5 S 13 17 7 9 1011.1 - 0.0
28/02:00am 22.1 17.4 0.6 24 9.8 SSW 15 17 8 9 1011.2 - 0.0
28/01:30am 22.6 18.3 1.0 24 10.0 SSW 13 17 7 9 1011.4 - 0.0
28/01:00am 23.5 18.8 1.2 23 10.4 S 15 19 8 10 1011.6 - 0.0
28/12:30am 24.3 18.9 1.2 22 10.9 S 19 20 10 11 1011.6 - 0.0
28/12:00am 25.0 19.5 1.8 22 11.1 S 20 24 11 13 1011.5 1010.7 0.0
 
Date/Time
CDT
Temp
°C
App
Temp
°C
Dew
Point
Rel
Hum
%
Delta-T
°C
Wind Press
QNH
hPa
Press
MSL
hPa
Rain
since 9 am
mm
Dir
 
Spd
km/h
Gust
km/h
Spd
kts
Gust
kts
27/11:30pm 25.7 20.3 2.4 22 11.3 S 20 24 11 13 1011.6 - 0.0
27/11:00pm 26.3 21.2 2.9 22 11.5 S 19 22 10 12 1011.6 - 0.0
27/10:30pm 27.1 21.4 2.9 21 12.0 SSE 22 26 12 14 1011.5 - 0.0
27/10:00pm 27.8 22.5 2.8 20 12.4 SSE 20 26 11 14 1011.2 - 0.0
27/09:30pm 28.2 22.5 3.1 20 12.6 SSE 22 30 12 16 1010.9 - 0.0

Other Formats:

Comma delimited format used in spreadsheet applications
http://www.bom.gov.au/fwo/IDS60801/IDS60801.94476.axf

JavaScript Object Notation format (JSON) in row-major order
http://www.bom.gov.au/fwo/IDS60801/IDS60801.94476.json